createdAt,value
2019-05-19T00:02:30.547Z,13.32
2019-05-19T00:05:05.411Z,11.00
2019-05-19T00:07:40.293Z,11.18
2019-05-19T00:10:14.706Z,11.78
2019-05-19T00:12:49.541Z,12.63
2019-05-19T00:15:24.154Z,10.48
2019-05-19T00:17:59.030Z,10.55
2019-05-19T00:20:33.848Z,10.38
2019-05-19T00:23:08.442Z,9.98
2019-05-19T00:25:43.139Z,11.15
2019-05-19T00:28:17.855Z,10.28
2019-05-19T00:30:52.941Z,11.43
2019-05-19T00:33:27.580Z,11.50
2019-05-19T00:36:03.081Z,11.50
2019-05-19T00:38:37.770Z,10.93
2019-05-19T00:41:12.846Z,10.58
2019-05-19T00:43:47.418Z,11.50
2019-05-19T00:46:23.332Z,9.30
2019-05-19T00:48:57.873Z,12.18
2019-05-19T00:51:31.745Z,9.55
2019-05-19T00:54:06.432Z,8.43
2019-05-19T00:56:41.030Z,8.73
2019-05-19T00:59:15.524Z,8.30
2019-05-19T01:01:50.436Z,8.28
2019-05-19T01:04:25.226Z,7.47
2019-05-19T01:07:00.949Z,11.15
2019-05-19T01:09:35.303Z,8.10
2019-05-19T01:12:10.801Z,8.20
2019-05-19T01:14:46.915Z,8.30
2019-05-19T01:17:21.925Z,7.55
2019-05-19T01:19:56.424Z,8.38
2019-05-19T01:22:31.232Z,8.13
2019-05-19T01:25:06.031Z,7.70
2019-05-19T01:27:40.295Z,7.80
2019-05-19T01:30:15.280Z,7.92
2019-05-19T01:32:50.065Z,7.45
2019-05-19T01:35:24.416Z,7.40
2019-05-19T01:37:59.240Z,9.45
2019-05-19T01:40:34.427Z,7.37
2019-05-19T01:43:09.003Z,7.60
2019-05-19T01:45:43.280Z,7.72
2019-05-19T01:48:18.372Z,8.93
2019-05-19T01:50:52.970Z,9.30
2019-05-19T01:53:27.573Z,7.03
2019-05-19T01:56:01.972Z,8.48
2019-05-19T01:58:36.583Z,8.90
2019-05-19T02:01:11.649Z,8.20
2019-05-19T02:03:46.161Z,7.87
2019-05-19T02:06:21.100Z,8.55
2019-05-19T02:08:55.984Z,8.18
2019-05-19T02:11:31.367Z,8.25
2019-05-19T02:14:08.509Z,10.28
2019-05-19T02:16:43.194Z,9.88
2019-05-19T02:19:17.663Z,7.55
2019-05-19T02:21:52.003Z,9.00
2019-05-19T02:24:26.593Z,11.57
2019-05-19T02:27:01.408Z,7.72
2019-05-19T02:29:36.001Z,7.60
2019-05-19T02:32:10.468Z,9.60
2019-05-19T02:34:45.273Z,9.43
2019-05-19T02:37:20.202Z,7.95
2019-05-19T02:39:54.955Z,7.30
2019-05-19T02:42:33.089Z,7.37
2019-05-19T02:45:11.271Z,9.30
2019-05-19T02:47:46.338Z,8.08
2019-05-19T02:50:20.923Z,6.35
2019-05-19T02:52:55.731Z,7.78
2019-05-19T02:55:30.437Z,8.53
2019-05-19T02:58:04.973Z,10.20
2019-05-19T03:00:44.030Z,7.53
2019-05-19T03:03:18.984Z,8.00
2019-05-19T03:05:53.855Z,8.98
2019-05-19T03:08:28.403Z,7.78
2019-05-19T03:11:02.759Z,9.48
2019-05-19T03:13:38.578Z,7.22
2019-05-19T03:16:13.533Z,7.35
2019-05-19T03:18:48.051Z,11.60
2019-05-19T03:21:22.956Z,7.35
2019-05-19T03:23:58.781Z,9.93
2019-05-19T03:26:33.653Z,8.60
2019-05-19T03:29:08.915Z,9.13
2019-05-19T03:31:49.894Z,7.12
2019-05-19T03:34:24.963Z,10.18
2019-05-19T03:36:59.285Z,7.22
2019-05-19T03:39:34.196Z,8.33
2019-05-19T03:42:10.570Z,6.92
2019-05-19T03:44:44.961Z,7.12
2019-05-19T03:47:40.534Z,7.00
2019-05-19T03:50:16.605Z,6.95
2019-05-19T03:52:52.196Z,7.55
2019-05-19T03:55:29.306Z,8.18
2019-05-19T03:58:03.431Z,9.55
2019-05-19T04:00:43.934Z,7.25
2019-05-19T04:03:20.871Z,7.17
2019-05-19T04:06:05.189Z,7.35
2019-05-19T04:08:39.777Z,7.65
2019-05-19T04:11:14.671Z,8.70
2019-05-19T04:13:49.374Z,8.55
2019-05-19T04:16:24.173Z,8.38
2019-05-19T04:18:58.843Z,9.10
2019-05-19T04:21:47.568Z,8.30
2019-05-19T04:24:09.222Z,8.58
2019-05-19T04:26:43.677Z,7.97
2019-05-19T04:29:19.437Z,8.18
2019-05-19T04:31:53.829Z,10.70
2019-05-19T04:34:34.177Z,9.07
2019-05-19T04:37:08.904Z,7.17
2019-05-19T04:39:43.653Z,9.50
2019-05-19T04:42:18.450Z,7.95
2019-05-19T04:44:55.706Z,9.00
2019-05-19T04:47:33.150Z,8.40
2019-05-19T04:50:07.950Z,8.63
2019-05-19T04:52:42.526Z,12.30
2019-05-19T04:55:20.381Z,8.70
2019-05-19T04:57:54.955Z,9.30
2019-05-19T05:00:29.671Z,9.50
2019-05-19T05:03:04.147Z,9.80
2019-05-19T05:05:39.182Z,8.50
2019-05-19T05:08:28.616Z,8.85
2019-05-19T05:10:50.058Z,10.28
2019-05-19T05:13:25.057Z,9.18
2019-05-19T05:15:59.463Z,9.45
2019-05-19T05:18:34.147Z,8.85
2019-05-19T05:21:08.843Z,9.35
2019-05-19T05:23:43.626Z,9.18
2019-05-19T05:26:18.141Z,8.75
2019-05-19T05:28:52.870Z,8.13
2019-05-19T05:31:27.687Z,7.87
2019-05-19T05:34:01.907Z,7.60
2019-05-19T05:36:36.509Z,8.65
2019-05-19T05:39:11.818Z,9.63
2019-05-19T05:41:47.718Z,10.30
2019-05-19T05:44:22.312Z,7.37
2019-05-19T05:46:57.333Z,11.30
2019-05-19T05:49:31.953Z,8.58
2019-05-19T05:52:06.251Z,8.20
2019-05-19T05:54:40.982Z,7.35
2019-05-19T05:57:17.689Z,7.08
2019-05-19T05:59:52.975Z,7.35
2019-05-19T06:02:28.218Z,7.42
2019-05-19T06:05:04.408Z,7.22
2019-05-19T06:07:39.151Z,9.35
2019-05-19T06:10:13.789Z,8.25
2019-05-19T06:12:48.556Z,7.83
2019-05-19T06:15:23.318Z,7.17
2019-05-19T06:17:57.682Z,8.23
2019-05-19T06:20:32.598Z,7.08
2019-05-19T06:23:07.329Z,7.35
2019-05-19T06:25:43.040Z,7.07
2019-05-19T06:28:17.530Z,8.90
2019-05-19T06:30:52.184Z,7.12
2019-05-19T06:33:26.654Z,8.20
2019-05-19T06:36:00.983Z,8.20
2019-05-19T06:38:34.875Z,8.65
2019-05-19T06:41:09.476Z,7.53
2019-05-19T06:43:46.488Z,7.70
2019-05-19T06:46:21.040Z,6.67
2019-05-19T06:48:55.795Z,7.33
2019-05-19T06:51:30.809Z,7.17
2019-05-19T06:54:05.012Z,7.58
2019-05-19T06:56:39.843Z,7.05
2019-05-19T06:59:14.473Z,7.05
2019-05-19T07:01:48.869Z,8.08
2019-05-19T07:04:23.828Z,8.13
2019-05-19T07:06:58.312Z,7.45
2019-05-19T07:09:33.895Z,7.33
2019-05-19T07:12:08.349Z,8.10
2019-05-19T07:14:43.024Z,6.40
2019-05-19T07:17:17.798Z,6.75
2019-05-19T07:19:55.203Z,6.45
2019-05-19T07:22:30.303Z,6.10
2019-05-19T07:25:04.366Z,6.55
2019-05-19T07:27:59.956Z,7.33
2019-05-19T07:30:34.297Z,6.15
2019-05-19T07:33:09.042Z,7.33
2019-05-19T07:35:50.641Z,6.45
2019-05-19T07:38:25.551Z,7.70
2019-05-19T07:41:00.520Z,8.18
2019-05-19T07:43:35.971Z,5.95
2019-05-19T07:46:10.957Z,6.25
2019-05-19T07:48:45.487Z,7.65
2019-05-19T07:51:19.685Z,7.12
2019-05-19T07:53:54.927Z,6.75
2019-05-19T07:56:29.652Z,8.75
2019-05-19T07:59:07.791Z,7.75
2019-05-19T08:01:40.540Z,6.47
2019-05-19T08:04:15.475Z,7.47
2019-05-19T08:06:50.153Z,10.60
2019-05-19T08:09:24.618Z,5.97
2019-05-19T08:11:59.440Z,5.75
2019-05-19T08:14:35.516Z,23.35
2019-05-19T08:17:10.136Z,14.53
2019-05-19T08:19:46.949Z,11.40
2019-05-19T08:22:21.409Z,9.03
2019-05-19T08:24:57.062Z,6.60
2019-05-19T08:27:31.154Z,5.65
2019-05-19T08:30:05.545Z,7.22
2019-05-19T08:32:40.738Z,5.58
2019-05-19T08:35:15.345Z,5.33
2019-05-19T08:37:50.002Z,6.35
2019-05-19T08:40:26.756Z,8.05
2019-05-19T08:43:01.506Z,5.90
2019-05-19T08:45:36.060Z,6.22
2019-05-19T08:48:10.858Z,6.47
2019-05-19T08:50:45.134Z,6.87
2019-05-19T08:53:19.912Z,6.57
2019-05-19T08:55:54.594Z,6.62
2019-05-19T08:58:28.954Z,6.78
2019-05-19T09:01:03.919Z,9.00
2019-05-19T09:03:38.459Z,7.85
2019-05-19T09:06:13.292Z,6.62
2019-05-19T09:08:47.783Z,6.55
2019-05-19T09:11:22.469Z,5.75
2019-05-19T09:13:57.256Z,6.47
2019-05-19T09:16:31.484Z,5.97
2019-05-19T09:19:05.747Z,6.28
2019-05-19T09:21:40.071Z,6.42
2019-05-19T09:24:29.616Z,6.00
2019-05-19T09:26:51.373Z,8.08
2019-05-19T09:29:26.500Z,6.60
2019-05-19T09:32:01.676Z,6.35
2019-05-19T09:34:37.176Z,6.17
2019-05-19T09:37:11.894Z,7.35
2019-05-19T09:39:46.651Z,6.67
2019-05-19T09:42:21.257Z,6.72
2019-05-19T09:44:55.850Z,5.55
2019-05-19T09:47:30.843Z,5.70
2019-05-19T09:50:05.799Z,6.42
2019-05-19T09:52:42.203Z,8.30
2019-05-19T09:55:23.024Z,6.62
2019-05-19T09:57:57.385Z,6.90
2019-05-19T10:00:40.224Z,5.42
2019-05-19T10:03:15.674Z,5.15
2019-05-19T10:05:51.049Z,7.95
2019-05-19T10:08:35.448Z,7.85
2019-05-19T10:11:59.942Z,5.75
2019-05-19T10:14:35.095Z,6.92
2019-05-19T10:17:10.186Z,7.35
2019-05-19T10:19:44.969Z,6.33
2019-05-19T10:22:19.233Z,5.80
2019-05-19T10:25:10.128Z,5.78
2019-05-19T10:27:30.713Z,5.37
2019-05-19T10:30:04.996Z,8.88
2019-05-19T10:32:39.628Z,5.25
2019-05-19T10:35:14.536Z,9.93
2019-05-19T10:37:49.145Z,7.17
2019-05-19T10:40:23.505Z,5.62
2019-05-19T10:43:00.245Z,5.40
2019-05-19T10:45:35.209Z,6.78
2019-05-19T10:48:10.044Z,6.58
2019-05-19T10:50:45.326Z,6.22
2019-05-19T10:53:19.684Z,9.78
2019-05-19T10:55:54.256Z,6.53
2019-05-19T10:58:29.199Z,6.62
2019-05-19T11:01:03.721Z,6.95
2019-05-19T11:03:40.312Z,6.42
2019-05-19T11:06:14.899Z,5.90
2019-05-19T11:08:49.048Z,6.57
2019-05-19T11:11:24.434Z,6.45
2019-05-19T11:14:00.111Z,7.22
2019-05-19T11:16:35.201Z,6.95
2019-05-19T11:19:10.005Z,8.75
2019-05-19T11:21:44.342Z,6.37
2019-05-19T11:24:18.529Z,6.55
2019-05-19T11:26:53.195Z,8.13
2019-05-19T11:29:30.470Z,7.05
2019-05-19T11:32:05.261Z,6.55
2019-05-19T11:34:40.474Z,8.53
2019-05-19T11:37:15.296Z,7.58
2019-05-19T11:39:49.820Z,6.60
2019-05-19T11:42:25.198Z,7.55
2019-05-19T11:45:00.027Z,6.53
2019-05-19T11:47:35.225Z,7.05
2019-05-19T11:50:09.520Z,7.90
2019-05-19T11:52:44.066Z,7.40
2019-05-19T11:55:19.140Z,7.85
2019-05-19T11:57:54.877Z,7.85
2019-05-19T12:00:29.132Z,7.95
2019-05-19T12:03:03.948Z,6.65
2019-05-19T12:05:38.490Z,7.10
2019-05-19T12:08:12.762Z,7.03
2019-05-19T12:10:46.784Z,7.60
2019-05-19T12:13:21.355Z,7.47
2019-05-19T12:15:56.100Z,8.88
2019-05-19T12:18:30.902Z,8.03
2019-05-19T12:21:06.582Z,8.40
2019-05-19T12:23:41.495Z,8.83
2019-05-19T12:26:23.221Z,8.38
2019-05-19T12:28:52.737Z,8.05
2019-05-19T12:31:31.058Z,8.25
2019-05-19T12:34:05.390Z,7.92
2019-05-19T12:36:40.158Z,7.83
2019-05-19T12:39:16.998Z,8.43
2019-05-19T12:41:54.296Z,7.92
2019-05-19T12:44:28.415Z,7.72
2019-05-19T12:47:02.942Z,9.10
2019-05-19T12:49:37.466Z,8.08
2019-05-19T12:52:12.140Z,8.28
2019-05-19T12:54:46.920Z,8.48
2019-05-19T12:57:21.420Z,8.18
2019-05-19T12:59:55.915Z,8.75
2019-05-19T13:02:30.134Z,8.58
2019-05-19T13:05:05.804Z,8.70
2019-05-19T13:07:40.206Z,7.70
2019-05-19T13:10:14.886Z,8.10
2019-05-19T13:12:49.685Z,8.78
2019-05-19T13:15:27.342Z,7.83
2019-05-19T13:18:02.723Z,8.50
2019-05-19T13:20:39.824Z,7.75
2019-05-19T13:23:18.515Z,7.92
2019-05-19T13:25:53.176Z,9.23
2019-05-19T13:28:28.861Z,8.55
2019-05-19T13:31:05.663Z,7.65
2019-05-19T13:33:41.122Z,7.97
2019-05-19T13:36:15.643Z,8.58
2019-05-19T13:38:51.005Z,9.53
2019-05-19T13:41:26.030Z,9.63
2019-05-19T13:44:01.109Z,9.10
2019-05-19T13:46:36.952Z,10.68
2019-05-19T13:49:12.416Z,9.03
2019-05-19T13:51:47.158Z,9.95
2019-05-19T13:54:22.203Z,9.20
2019-05-19T13:57:09.965Z,10.75
2019-05-19T13:59:32.515Z,9.68
2019-05-19T14:02:06.793Z,9.15
2019-05-19T14:04:41.106Z,10.38
2019-05-19T14:07:15.701Z,12.85
2019-05-19T14:09:50.596Z,14.87
2019-05-19T14:12:26.020Z,10.05
2019-05-19T14:15:03.896Z,10.08
2019-05-19T14:17:39.201Z,11.53
2019-05-19T14:20:13.840Z,9.98
2019-05-19T14:22:50.652Z,10.50
2019-05-19T14:25:28.346Z,10.00
2019-05-19T14:28:03.840Z,10.70
2019-05-19T14:30:38.602Z,10.80
2019-05-19T14:33:12.885Z,9.58
2019-05-19T14:35:49.999Z,9.95
2019-05-19T14:38:24.730Z,10.50
2019-05-19T14:41:03.207Z,8.78
2019-05-19T14:43:37.585Z,9.08
2019-05-19T14:46:11.955Z,12.13
2019-05-19T14:48:46.343Z,9.98
2019-05-19T14:51:21.793Z,7.60
2019-05-19T14:53:56.442Z,9.15
2019-05-19T14:56:33.591Z,9.05
2019-05-19T14:59:06.653Z,9.15
2019-05-19T15:01:41.560Z,9.28
2019-05-19T15:04:17.066Z,8.30
2019-05-19T15:06:51.322Z,8.78
2019-05-19T15:09:25.947Z,9.70
2019-05-19T15:12:00.555Z,8.93
2019-05-19T15:14:36.214Z,8.50
2019-05-19T15:17:10.516Z,9.68
2019-05-19T15:19:44.893Z,9.55
2019-05-19T15:22:22.952Z,8.93
2019-05-19T15:24:59.647Z,10.05
2019-05-19T15:27:33.353Z,10.90
2019-05-19T15:30:12.972Z,9.80
2019-05-19T15:32:44.145Z,10.95
2019-05-19T15:35:18.176Z,7.80
2019-05-19T15:37:52.457Z,10.03
2019-05-19T15:40:29.474Z,10.45
2019-05-19T15:43:03.727Z,9.55
2019-05-19T15:45:37.931Z,10.72
2019-05-19T15:48:12.472Z,11.38
2019-05-19T15:50:49.868Z,11.05
2019-05-19T15:53:24.297Z,12.63
2019-05-19T15:55:59.730Z,10.90
2019-05-19T15:58:34.303Z,11.30
2019-05-19T16:01:09.347Z,13.85
2019-05-19T16:03:45.491Z,13.18
2019-05-19T16:06:20.266Z,11.90
2019-05-19T16:08:54.639Z,12.58
2019-05-19T16:11:28.895Z,12.30
2019-05-19T16:14:03.536Z,10.90
2019-05-19T16:16:38.585Z,10.03
2019-05-19T16:19:15.918Z,11.55
2019-05-19T16:21:50.442Z,9.78
2019-05-19T16:24:24.787Z,9.50
2019-05-19T16:26:59.370Z,12.45
2019-05-19T16:29:33.492Z,9.40
2019-05-19T16:32:08.203Z,10.05
2019-05-19T16:34:42.946Z,9.23
2019-05-19T16:37:17.310Z,9.40
2019-05-19T16:39:51.681Z,8.68
2019-05-19T16:42:26.322Z,10.85
2019-05-19T16:45:00.460Z,13.35
2019-05-19T16:47:34.956Z,11.55
2019-05-19T16:50:09.507Z,7.95
2019-05-19T16:52:43.927Z,8.18
2019-05-19T16:55:36.572Z,7.63
2019-05-19T16:58:21.284Z,8.03
2019-05-19T17:00:48.264Z,8.35
2019-05-19T17:03:22.578Z,9.28
2019-05-19T17:05:56.881Z,10.45
2019-05-19T17:08:31.230Z,7.78
2019-05-19T17:11:17.600Z,10.70
2019-05-19T17:13:41.809Z,8.68
2019-05-19T17:16:16.284Z,11.12
2019-05-19T17:18:51.019Z,18.00
2019-05-19T17:21:25.523Z,11.37
2019-05-19T17:24:00.006Z,12.30
2019-05-19T17:26:34.836Z,10.90
2019-05-19T17:29:09.107Z,9.78
2019-05-19T17:34:47.673Z,9.03
2019-05-19T17:37:22.109Z,9.58
2019-05-19T17:39:56.768Z,8.68
2019-05-19T17:42:31.182Z,8.55
2019-05-19T17:45:06.068Z,8.80
2019-05-19T17:47:42.692Z,8.28
2019-05-19T17:50:22.585Z,8.83
2019-05-19T17:52:58.073Z,10.10
2019-05-19T17:55:35.766Z,9.23
2019-05-19T17:58:20.879Z,8.78
2019-05-19T18:00:55.590Z,8.55
2019-05-19T18:03:30.640Z,8.50
2019-05-19T18:06:05.381Z,8.78
2019-05-19T18:08:40.241Z,8.30
2019-05-19T18:11:14.771Z,9.10
2019-05-19T18:13:50.592Z,10.88
2019-05-19T18:16:24.891Z,10.93
2019-05-19T18:18:59.692Z,11.65
2019-05-19T18:21:34.759Z,10.78
2019-05-19T18:24:09.680Z,13.43
2019-05-19T18:26:45.174Z,9.48
2019-05-19T18:29:30.468Z,9.28
2019-05-19T18:31:56.886Z,8.95
2019-05-19T18:34:31.436Z,8.98
2019-05-19T18:37:06.408Z,9.78
2019-05-19T18:39:41.475Z,9.43
2019-05-19T18:42:15.984Z,8.78
2019-05-19T18:44:50.471Z,9.28
2019-05-19T18:47:25.226Z,10.35
2019-05-19T18:49:59.892Z,10.95
2019-05-19T18:52:34.459Z,10.70
2019-05-19T18:55:09.001Z,9.30
2019-05-19T18:57:43.793Z,8.43
2019-05-19T19:00:25.972Z,9.73
2019-05-19T19:03:00.441Z,7.92
2019-05-19T19:05:34.486Z,12.43
2019-05-19T19:08:09.235Z,9.88
2019-05-19T19:10:44.134Z,8.88
2019-05-19T19:13:18.847Z,10.38
2019-05-19T19:15:53.457Z,10.82
2019-05-19T19:18:28.074Z,9.68
2019-05-19T19:21:02.703Z,9.35
2019-05-19T19:23:37.375Z,9.70
2019-05-19T19:26:13.085Z,10.25
2019-05-19T19:28:47.464Z,10.55
2019-05-19T19:31:22.008Z,10.23
2019-05-19T19:33:56.593Z,10.68
2019-05-19T19:36:31.181Z,12.37
2019-05-19T19:39:06.027Z,11.08
2019-05-19T19:41:40.641Z,9.15
2019-05-19T19:44:14.883Z,10.30
2019-05-19T19:46:52.911Z,13.20
2019-05-19T19:49:25.880Z,11.18
2019-05-19T19:52:00.769Z,10.63
2019-05-19T19:54:35.333Z,10.05
2019-05-19T19:57:10.268Z,10.72
2019-05-19T19:59:45.029Z,10.28
2019-05-19T20:02:20.629Z,10.63
2019-05-19T20:04:55.325Z,10.08
2019-05-19T20:07:29.928Z,10.38
2019-05-19T20:10:05.379Z,9.93
2019-05-19T20:12:39.677Z,11.28
2019-05-19T20:15:17.870Z,10.80
2019-05-19T20:17:52.789Z,10.05
2019-05-19T20:20:27.163Z,10.55
2019-05-19T20:23:01.891Z,10.53
2019-05-19T20:25:37.309Z,11.93
2019-05-19T20:28:11.741Z,9.68
2019-05-19T20:30:53.018Z,9.70
2019-05-19T20:33:27.854Z,9.70
2019-05-19T20:36:03.535Z,12.68
2019-05-19T20:38:40.106Z,9.93
2019-05-19T20:41:22.408Z,12.60
2019-05-19T20:44:14.932Z,10.05
2019-05-19T20:46:49.836Z,9.65
2019-05-19T20:49:24.221Z,10.82
2019-05-19T20:52:00.067Z,10.58
2019-05-19T20:54:35.414Z,10.63
2019-05-19T20:57:12.290Z,9.63
2019-05-19T20:59:46.645Z,11.83
2019-05-19T21:02:21.463Z,15.05
2019-05-19T21:04:55.852Z,11.20
2019-05-19T21:07:30.796Z,11.57
2019-05-19T21:10:05.275Z,11.18
2019-05-19T21:12:40.849Z,13.18
2019-05-19T21:15:15.534Z,12.55
2019-05-19T21:17:50.128Z,13.95
2019-05-19T21:20:24.883Z,16.67
2019-05-19T21:23:00.282Z,18.52
2019-05-19T21:25:35.431Z,14.60
2019-05-19T21:28:10.301Z,16.95
2019-05-19T21:30:45.107Z,13.28
2019-05-19T21:33:19.726Z,14.00
2019-05-19T21:35:54.332Z,12.95
2019-05-19T21:38:29.271Z,12.88
2019-05-19T21:41:04.229Z,14.50
2019-05-19T21:43:39.073Z,12.47
2019-05-19T21:46:13.496Z,12.07
2019-05-19T21:48:47.831Z,12.10
2019-05-19T21:51:22.516Z,11.37
2019-05-19T21:53:56.843Z,12.13
2019-05-19T21:56:31.627Z,11.85
2019-05-19T21:59:06.221Z,11.88
2019-05-19T22:01:40.378Z,10.55
2019-05-19T22:04:15.425Z,11.57
2019-05-19T22:06:55.873Z,11.65
2019-05-19T22:09:30.797Z,10.48
2019-05-19T22:12:05.391Z,11.18
2019-05-19T22:14:39.577Z,12.25
2019-05-19T22:17:14.313Z,11.88
2019-05-19T22:19:48.798Z,12.55
2019-05-19T22:22:23.602Z,11.60
2019-05-19T22:24:58.334Z,11.28
2019-05-19T22:27:33.541Z,12.13
2019-05-19T22:30:08.482Z,12.87
2019-05-19T22:32:43.266Z,12.93
2019-05-19T22:35:17.906Z,12.47
2019-05-19T22:37:52.320Z,12.37
2019-05-19T22:40:26.906Z,14.00
2019-05-19T22:43:01.195Z,13.90
2019-05-19T22:45:36.159Z,12.78
2019-05-19T22:48:10.905Z,13.20
2019-05-19T22:50:45.544Z,14.95
2019-05-19T22:53:21.303Z,15.05
2019-05-19T22:55:55.899Z,13.83
2019-05-19T22:58:30.507Z,14.70
2019-05-19T23:01:05.650Z,13.25
2019-05-19T23:03:39.737Z,14.98
2019-05-19T23:06:14.431Z,13.70
2019-05-19T23:08:49.396Z,13.20
2019-05-19T23:11:23.983Z,12.85
2019-05-19T23:13:58.643Z,13.40
2019-05-19T23:16:33.429Z,12.70
2019-05-19T23:19:29.119Z,12.33
2019-05-19T23:22:04.377Z,12.07
2019-05-19T23:24:41.285Z,11.60
2019-05-19T23:27:24.105Z,11.68
2019-05-19T23:29:59.729Z,12.43
2019-05-19T23:32:34.350Z,12.05
2019-05-19T23:35:10.096Z,11.75
2019-05-19T23:37:44.892Z,11.45
2019-05-19T23:40:19.369Z,11.12
2019-05-19T23:42:53.841Z,13.18
2019-05-19T23:45:28.359Z,12.18
2019-05-19T23:48:03.211Z,11.53
2019-05-19T23:50:37.601Z,10.43
2019-05-19T23:53:12.235Z,11.50
2019-05-19T23:55:46.957Z,10.48
2019-05-19T23:58:21.258Z,11.35
